DCA weather

Ronald Reagan Washington National Airport
Washington, District of Columbia, United States

Public forecast

Using degrees Fahrenheit for public forecast. Weather courtesy of forecast.io.

Current aviation weather report (METAR) for Ronald Reagan Washington National Airport

Retrieved 2020/01/19 08:52 UTC (47 minutes ago):

KDCA 190852Z 00000KT 10SM OVC011 07/05 A2974 RMK AO2 SLP070 T00670050 56009

Aviation forecast (TAF) for Ronald Reagan Washington National Airport

Retrieved 2020/01/19 06:42 UTC (3 hours ago):

TAF KDCA 190540Z 1906/2012 20019G24KT P6SM OVC012 FM190800 24010G17KT P6SM BKN030 FM191000 28009KT P6SM SCT080 FM191300 30011G18KT P6SM SCT200 FM191700 30014G24KT P6SM SCT150 FM200000 31013G22KT P6SM FEW250